KOEO/OEO METAR and TAF weather

Enter ICAO airport designator
Station Type Date Time Source
KOEO METAR 2020/09/26 23:15 UTC NOAA

KOEO 262315Z AUTO 01005KT 4SM +DZ SCT011 SCT017 OVC028 15/15 A2953 RMK AO2 T01510151


Station Type Date Time Source
KOEO Decoded METAR 2020/09/26 23:15 UTC NOAA

Osceola, L O Simenstad Municipal Airport, WI, United States (KOEO) 45-18-31N 092-41-24W
Sep 26, 2020 - 07:15 PM EDT / 2020.09.26 2315 UTC
Wind: from the N (010 degrees) at 6 MPH (5 KT):0
Visibility: 4 mile(s):0
Sky conditions: overcast
Weather: heavy drizzle
Temperature: 59.2 F (15.1 C)
Dew Point: 59.2 F (15.1 C)
Relative Humidity: 100%
Pressure (altimeter): 29.53 in. Hg (1000 hPa)
ob: KOEO 262315Z AUTO 01005KT 4SM +DZ SCT011 SCT017 OVC028 15/15 A2953 RMK AO2 T01510151
cycle: 23

Station Type Date Time Source
KOEO TAF UTC NOAA

Error!

Example: see airport list